createdAt,value
2019-05-07T00:00:29.313Z,10.30
2019-05-07T00:02:57.768Z,9.60
2019-05-07T00:05:26.198Z,9.67
2019-05-07T00:07:54.595Z,8.93
2019-05-07T00:10:24.943Z,9.63
2019-05-07T00:12:53.148Z,11.10
2019-05-07T00:15:23.021Z,8.90
2019-05-07T00:17:52.222Z,9.73
2019-05-07T00:20:23.005Z,8.77
2019-05-07T00:22:53.248Z,8.60
2019-05-07T00:25:22.875Z,10.53
2019-05-07T00:27:52.318Z,9.53
2019-05-07T00:30:22.337Z,8.60
2019-05-07T00:32:52.930Z,9.80
2019-05-07T00:35:22.673Z,8.60
2019-05-07T00:37:52.770Z,9.80
2019-05-07T00:40:28.632Z,8.57
2019-05-07T00:43:07.532Z,7.83
2019-05-07T00:45:42.150Z,9.70
2019-05-07T00:48:12.608Z,8.73
2019-05-07T00:50:42.657Z,8.67
2019-05-07T00:53:13.090Z,8.90
2019-05-07T00:55:42.290Z,9.53
2019-05-07T00:58:13.109Z,11.20
2019-05-07T01:00:42.093Z,10.27
2019-05-07T01:03:12.741Z,8.90
2019-05-07T01:05:43.037Z,10.93
2019-05-07T01:08:13.008Z,9.88
2019-05-07T01:10:41.985Z,9.33
2019-05-07T01:13:12.545Z,9.57
2019-05-07T01:15:42.758Z,12.97
2019-05-07T01:18:12.372Z,9.83
2019-05-07T01:20:42.253Z,11.10
2019-05-07T01:23:13.208Z,10.93
2019-05-07T01:25:43.058Z,10.43
2019-05-07T01:28:13.192Z,11.30
2019-05-07T01:30:43.191Z,9.63
2019-05-07T01:33:13.057Z,10.30
2019-05-07T01:35:45.785Z,9.27
2019-05-07T01:38:18.931Z,9.40
2019-05-07T01:40:47.326Z,11.23
2019-05-07T01:43:15.720Z,9.57
2019-05-07T01:45:49.155Z,11.60
2019-05-07T01:48:15.498Z,11.77
2019-05-07T01:50:43.944Z,10.50
2019-05-07T01:53:12.404Z,10.37
2019-05-07T01:55:42.795Z,10.13
2019-05-07T01:58:12.521Z,10.10
2019-05-07T02:00:42.421Z,10.33
2019-05-07T02:03:27.676Z,11.85
2019-05-07T02:06:02.181Z,9.17
2019-05-07T02:08:38.369Z,8.70
2019-05-07T02:11:26.657Z,12.00
2019-05-07T02:13:55.081Z,11.00
2019-05-07T02:16:23.472Z,10.27
2019-05-07T02:18:52.830Z,10.23
2019-05-07T02:21:22.089Z,10.50
2019-05-07T02:23:52.367Z,9.90
2019-05-07T02:26:22.562Z,9.80
2019-05-07T02:28:51.841Z,10.20
2019-05-07T02:31:22.948Z,9.60
2019-05-07T02:33:53.861Z,12.57
2019-05-07T02:36:23.850Z,9.70
2019-05-07T02:38:55.719Z,8.53
2019-05-07T02:41:25.789Z,10.00
2019-05-07T02:43:54.211Z,9.90
2019-05-07T02:46:32.929Z,10.53
2019-05-07T02:49:13.884Z,10.10
2019-05-07T02:51:43.561Z,11.30
2019-05-07T02:54:20.110Z,8.93
2019-05-07T02:56:48.521Z,11.57
2019-05-07T02:59:16.914Z,12.87
2019-05-07T03:01:45.377Z,9.57
2019-05-07T03:04:13.807Z,11.08
2019-05-07T03:06:44.253Z,9.87
2019-05-07T03:09:14.526Z,13.13
2019-05-07T03:11:43.432Z,10.37
2019-05-07T03:14:14.015Z,12.30
2019-05-07T03:16:45.452Z,10.23
2019-05-07T03:19:13.364Z,12.10
2019-05-07T03:21:55.297Z,11.13
2019-05-07T03:24:43.596Z,9.67
2019-05-07T03:27:14.134Z,10.88
2019-05-07T03:29:44.490Z,10.13
2019-05-07T03:32:38.358Z,12.30
2019-05-07T03:35:07.183Z,13.13
2019-05-07T03:37:36.779Z,10.23
2019-05-07T03:40:07.327Z,10.75
2019-05-07T03:42:35.755Z,13.30
2019-05-07T03:45:13.451Z,12.10
2019-05-07T03:47:43.873Z,10.33
2019-05-07T03:50:14.877Z,13.47
2019-05-07T03:52:43.489Z,10.87
2019-05-07T03:55:14.545Z,12.27
2019-05-07T03:57:43.765Z,13.63
2019-05-07T04:00:13.303Z,11.48
2019-05-07T04:02:43.783Z,13.73
2019-05-07T04:05:14.004Z,15.83
2019-05-07T04:07:43.180Z,11.47
2019-05-07T04:10:14.937Z,12.37
2019-05-07T04:12:44.144Z,11.10
2019-05-07T04:15:14.505Z,11.50
2019-05-07T04:17:43.229Z,13.33
2019-05-07T04:20:13.479Z,12.10
2019-05-07T04:22:43.325Z,10.60
2019-05-07T04:25:30.574Z,12.83
2019-05-07T04:28:09.675Z,10.97
2019-05-07T04:30:38.505Z,11.33
2019-05-07T04:33:08.540Z,13.50
2019-05-07T04:35:43.381Z,11.77
2019-05-07T04:38:13.751Z,13.40
2019-05-07T04:40:43.437Z,12.63
2019-05-07T04:43:13.542Z,11.80
2019-05-07T04:45:43.322Z,13.30
2019-05-07T04:48:14.177Z,13.40
2019-05-07T04:50:47.565Z,13.23
2019-05-07T04:53:14.086Z,12.37
2019-05-07T04:55:43.032Z,18.40
2019-05-07T04:58:13.977Z,14.47
2019-05-07T05:00:43.058Z,12.70
2019-05-07T05:03:23.742Z,16.00
2019-05-07T05:05:53.207Z,14.13
2019-05-07T05:08:23.451Z,13.47
2019-05-07T05:10:53.665Z,13.43
2019-05-07T05:13:23.667Z,14.13
2019-05-07T05:15:52.834Z,12.70
2019-05-07T05:18:22.054Z,15.43
2019-05-07T05:21:08.233Z,14.00
2019-05-07T05:23:38.303Z,13.80
2019-05-07T05:26:06.734Z,12.43
2019-05-07T05:28:35.187Z,13.57
2019-05-07T05:31:05.270Z,12.47
2019-05-07T05:33:33.666Z,12.40
2019-05-07T05:36:03.060Z,13.63
2019-05-07T05:38:32.939Z,10.93
2019-05-07T05:41:02.729Z,12.70
2019-05-07T05:43:33.036Z,12.37
2019-05-07T05:46:03.242Z,14.70
2019-05-07T05:48:33.356Z,11.57
2019-05-07T05:51:03.445Z,11.17
2019-05-07T05:53:36.402Z,13.60
2019-05-07T05:56:07.387Z,13.13
2019-05-07T05:58:40.187Z,12.10
2019-05-07T06:01:16.280Z,10.87
2019-05-07T06:03:46.316Z,15.07
2019-05-07T06:06:19.101Z,12.60
2019-05-07T06:08:54.956Z,12.27
2019-05-07T06:11:28.064Z,13.97
2019-05-07T06:13:58.097Z,13.10
2019-05-07T06:16:28.142Z,12.23
2019-05-07T06:19:16.503Z,12.63
2019-05-07T06:22:02.132Z,13.93
2019-05-07T06:24:42.664Z,13.03
2019-05-07T06:27:12.286Z,13.57
2019-05-07T06:29:42.639Z,14.83
2019-05-07T06:32:12.574Z,11.23
2019-05-07T06:34:44.496Z,15.53
2019-05-07T06:37:11.911Z,11.83
2019-05-07T06:39:58.636Z,14.00
2019-05-07T06:42:47.069Z,11.30
2019-05-07T06:45:17.377Z,13.03
2019-05-07T06:47:45.851Z,11.87
2019-05-07T06:50:14.338Z,13.83
2019-05-07T06:52:43.002Z,12.07
2019-05-07T06:55:12.218Z,12.67
2019-05-07T06:57:42.519Z,13.37
2019-05-07T07:00:22.557Z,11.67
2019-05-07T07:02:55.457Z,13.33
2019-05-07T07:05:34.554Z,13.13
2019-05-07T07:08:17.091Z,10.97
2019-05-07T07:10:52.064Z,13.87
2019-05-07T07:13:22.806Z,12.33
2019-05-07T07:15:52.179Z,12.00
2019-05-07T07:18:22.908Z,12.77
2019-05-07T07:20:52.455Z,12.20
2019-05-07T07:23:22.624Z,10.80
2019-05-07T07:25:52.222Z,12.57
2019-05-07T07:28:21.896Z,11.83
2019-05-07T07:30:54.912Z,13.83
2019-05-07T07:33:24.976Z,14.87
2019-05-07T07:35:53.369Z,12.17
2019-05-07T07:38:26.364Z,12.53
2019-05-07T07:40:56.822Z,12.37
2019-05-07T07:43:25.237Z,10.63
2019-05-07T07:45:53.634Z,16.90
2019-05-07T07:48:24.526Z,12.23
2019-05-07T07:50:52.474Z,12.47
2019-05-07T07:53:22.724Z,11.67
2019-05-07T07:56:09.265Z,13.47
2019-05-07T07:58:52.410Z,10.87
2019-05-07T08:01:22.864Z,10.73
2019-05-07T08:03:52.247Z,12.33
2019-05-07T08:06:42.209Z,12.43
2019-05-07T08:09:12.761Z,11.03
2019-05-07T08:11:42.530Z,15.20
2019-05-07T08:14:12.679Z,15.68
2019-05-07T08:16:42.971Z,17.80
2019-05-07T08:19:21.810Z,16.87
2019-05-07T08:21:42.238Z,16.47
2019-05-07T08:24:12.273Z,15.13
2019-05-07T08:26:42.783Z,16.47
2019-05-07T08:29:11.879Z,15.30
2019-05-07T08:31:42.510Z,14.10
2019-05-07T08:34:15.085Z,17.23
2019-05-07T08:36:43.484Z,15.60
2019-05-07T08:39:12.964Z,16.23
2019-05-07T08:41:42.328Z,13.60
2019-05-07T08:44:15.415Z,16.37
2019-05-07T08:46:53.420Z,14.80
2019-05-07T08:49:35.565Z,17.27
2019-05-07T08:52:03.596Z,18.67
2019-05-07T08:54:32.491Z,16.33
2019-05-07T08:57:01.967Z,16.47
2019-05-07T08:59:32.056Z,16.10
2019-05-07T09:02:02.879Z,17.87
2019-05-07T09:04:32.768Z,16.63
2019-05-07T09:07:02.723Z,17.17
2019-05-07T09:09:32.387Z,18.97
2019-05-07T09:12:03.047Z,20.33
2019-05-07T09:14:32.231Z,18.10
2019-05-07T09:17:02.612Z,15.17
2019-05-07T09:19:32.413Z,16.10
2019-05-07T09:22:02.160Z,15.90
2019-05-07T09:24:32.997Z,16.97
2019-05-07T09:27:02.894Z,16.37
2019-05-07T09:29:35.452Z,17.07
2019-05-07T09:32:17.550Z,18.13
2019-05-07T09:34:52.056Z,17.97
2019-05-07T09:37:32.601Z,15.50
2019-05-07T09:40:02.892Z,14.47
2019-05-07T09:42:33.147Z,16.13
2019-05-07T09:45:01.899Z,16.60
2019-05-07T09:47:32.490Z,15.50
2019-05-07T09:50:05.549Z,15.47
2019-05-07T09:52:32.129Z,15.33
2019-05-07T09:55:11.003Z,14.20
2019-05-07T09:57:34.378Z,15.43
2019-05-07T10:00:02.233Z,12.83
2019-05-07T10:02:32.010Z,13.07
2019-05-07T10:05:02.477Z,15.03
2019-05-07T10:07:32.531Z,14.23
2019-05-07T10:10:03.156Z,15.80
2019-05-07T10:12:33.122Z,13.13
2019-05-07T10:15:03.110Z,13.10
2019-05-07T10:17:33.522Z,13.07
2019-05-07T10:20:04.441Z,12.00
2019-05-07T10:22:32.459Z,12.47
2019-05-07T10:25:02.836Z,12.67
2019-05-07T10:27:32.503Z,12.20
2019-05-07T10:30:02.727Z,12.23
2019-05-07T10:32:32.223Z,12.90
2019-05-07T10:35:02.220Z,11.93
2019-05-07T10:37:31.900Z,15.97
2019-05-07T10:40:02.847Z,10.37
2019-05-07T10:42:32.390Z,11.93
2019-05-07T10:45:03.166Z,11.47
2019-05-07T10:47:48.253Z,13.07
2019-05-07T10:50:38.949Z,13.00
2019-05-07T10:53:02.126Z,12.37
2019-05-07T10:55:32.828Z,11.53
2019-05-07T10:58:03.002Z,10.70
2019-05-07T11:00:33.131Z,13.60
2019-05-07T11:03:02.338Z,11.03
2019-05-07T11:05:32.682Z,11.43
2019-05-07T11:08:02.314Z,11.63
2019-05-07T11:10:32.651Z,11.37
2019-05-07T11:13:02.312Z,11.73
2019-05-07T11:15:32.640Z,12.17
2019-05-07T11:18:15.312Z,12.07
2019-05-07T11:20:49.655Z,11.63
2019-05-07T11:23:14.036Z,11.20
2019-05-07T11:25:42.613Z,11.50
2019-05-07T11:28:12.351Z,10.57
2019-05-07T11:30:42.579Z,12.50
2019-05-07T11:33:12.884Z,11.40
2019-05-07T11:35:42.249Z,9.77
2019-05-07T11:38:18.662Z,10.25
2019-05-07T11:40:42.783Z,10.90
2019-05-07T11:43:29.752Z,14.70
2019-05-07T11:46:08.602Z,11.33
2019-05-07T11:48:38.710Z,10.80
2019-05-07T11:51:08.765Z,11.23
2019-05-07T11:53:38.789Z,10.27
2019-05-07T11:56:07.221Z,10.23
2019-05-07T11:58:35.632Z,11.83
2019-05-07T12:01:07.329Z,9.93
2019-05-07T12:03:35.804Z,10.50
2019-05-07T12:06:04.274Z,9.07
2019-05-07T12:08:42.964Z,9.67
2019-05-07T12:11:02.897Z,11.73
2019-05-07T12:13:32.283Z,11.27
2019-05-07T12:16:02.901Z,11.20
2019-05-07T12:18:31.955Z,11.50
2019-05-07T12:21:03.888Z,10.67
2019-05-07T12:23:33.055Z,8.50
2019-05-07T12:26:02.273Z,8.53
2019-05-07T12:28:32.792Z,8.80
2019-05-07T12:31:02.883Z,10.03
2019-05-07T12:33:44.753Z,8.23
2019-05-07T12:36:14.818Z,7.28
2019-05-07T12:38:43.204Z,8.73
2019-05-07T12:41:29.926Z,7.90
2019-05-07T12:44:02.710Z,8.37
2019-05-07T12:46:33.161Z,6.97
2019-05-07T12:49:03.153Z,7.40
2019-05-07T12:51:37.204Z,7.63
2019-05-07T12:54:06.169Z,6.87
2019-05-07T12:56:35.389Z,8.10
2019-05-07T12:59:04.157Z,7.47
2019-05-07T13:01:46.441Z,7.77
2019-05-07T13:04:34.909Z,6.47
2019-05-07T13:07:13.781Z,7.73
2019-05-07T13:09:42.747Z,6.77
2019-05-07T13:12:11.256Z,9.53
2019-05-07T13:14:39.707Z,7.77
2019-05-07T13:17:08.105Z,8.27
2019-05-07T13:19:39.139Z,6.97
2019-05-07T13:22:06.672Z,8.10
2019-05-07T13:24:35.080Z,10.83
2019-05-07T13:27:04.740Z,6.37
2019-05-07T13:29:33.442Z,7.07
2019-05-07T13:32:03.654Z,7.67
2019-05-07T13:34:34.152Z,7.90
2019-05-07T13:37:07.456Z,8.23
2019-05-07T13:39:40.365Z,8.53
2019-05-07T13:42:13.073Z,7.57
2019-05-07T13:44:43.140Z,9.73
2019-05-07T13:47:31.657Z,7.50
2019-05-07T13:50:02.631Z,12.70
2019-05-07T13:52:32.891Z,5.60
2019-05-07T13:55:01.163Z,10.97
2019-05-07T13:57:29.767Z,7.67
2019-05-07T13:59:58.164Z,6.57
2019-05-07T14:02:28.192Z,6.53
2019-05-07T14:04:56.702Z,6.80
2019-05-07T14:07:26.588Z,6.20
2019-05-07T14:09:55.057Z,8.20
2019-05-07T14:12:23.700Z,5.53
2019-05-07T14:14:53.025Z,5.33
2019-05-07T14:17:22.128Z,7.33
2019-05-07T14:19:52.868Z,6.73
2019-05-07T14:22:22.606Z,5.37
2019-05-07T14:24:53.059Z,6.83
2019-05-07T14:27:21.450Z,6.85
2019-05-07T14:29:51.775Z,7.33
2019-05-07T14:32:28.087Z,9.53
2019-05-07T14:35:04.704Z,6.60
2019-05-07T14:37:34.725Z,4.70
2019-05-07T14:40:04.371Z,6.30
2019-05-07T14:42:34.632Z,7.03
2019-05-07T14:45:04.575Z,7.93
2019-05-07T14:47:32.968Z,6.37
2019-05-07T14:50:02.117Z,5.60
2019-05-07T14:52:35.521Z,6.10
2019-05-07T14:55:05.103Z,5.87
2019-05-07T14:57:32.553Z,6.70
2019-05-07T15:00:03.059Z,5.83
2019-05-07T15:02:32.570Z,4.97
2019-05-07T15:05:02.785Z,6.80
2019-05-07T15:07:32.674Z,7.77
2019-05-07T15:10:02.311Z,5.07
2019-05-07T15:12:32.881Z,5.53
2019-05-07T15:15:02.236Z,5.63
2019-05-07T15:17:48.112Z,6.93
2019-05-07T15:20:16.686Z,7.13
2019-05-07T15:22:50.113Z,5.43
2019-05-07T15:25:19.836Z,5.90
2019-05-07T15:27:49.757Z,6.20
2019-05-07T15:30:18.353Z,7.28
2019-05-07T15:32:46.844Z,7.20
2019-05-07T15:35:15.437Z,5.00
2019-05-07T15:37:43.829Z,5.57
2019-05-07T15:40:12.501Z,7.53
2019-05-07T15:42:42.151Z,6.13
2019-05-07T15:45:12.548Z,5.17
2019-05-07T15:47:45.806Z,6.03
2019-05-07T15:50:14.441Z,8.37
2019-05-07T15:52:58.092Z,7.03
2019-05-07T15:55:22.426Z,7.40
2019-05-07T15:57:52.173Z,6.13
2019-05-07T16:00:28.661Z,5.40
2019-05-07T16:03:07.897Z,5.77
2019-05-07T16:05:36.529Z,4.77
2019-05-07T16:08:07.635Z,5.50
2019-05-07T16:10:36.070Z,5.20
2019-05-07T16:13:04.738Z,5.03
2019-05-07T16:15:33.464Z,4.83
2019-05-07T16:18:03.531Z,8.03
2019-05-07T16:20:32.556Z,6.57
2019-05-07T16:23:14.444Z,5.20
2019-05-07T16:25:33.017Z,8.77
2019-05-07T16:28:04.428Z,5.80
2019-05-07T16:30:32.371Z,7.80
2019-05-07T16:33:02.083Z,8.37
2019-05-07T16:35:32.001Z,12.33
2019-05-07T16:38:00.743Z,6.07
2019-05-07T16:40:29.156Z,6.83
2019-05-07T16:42:57.586Z,6.57
2019-05-07T16:45:25.979Z,4.97
2019-05-07T16:47:54.395Z,5.47
2019-05-07T16:50:22.789Z,6.40
2019-05-07T16:52:52.413Z,5.40
2019-05-07T16:55:22.409Z,4.37
2019-05-07T16:58:04.884Z,8.47
2019-05-07T17:00:37.694Z,6.13
2019-05-07T17:03:07.733Z,5.97
2019-05-07T17:05:36.160Z,5.00
2019-05-07T17:08:06.216Z,5.00
2019-05-07T17:10:34.629Z,4.17
2019-05-07T17:13:03.084Z,4.13
2019-05-07T17:15:33.127Z,6.60
2019-05-07T17:18:02.830Z,6.37
2019-05-07T17:20:32.692Z,6.07
2019-05-07T17:23:02.992Z,5.27
2019-05-07T17:25:37.575Z,4.27
2019-05-07T17:28:07.430Z,6.37
2019-05-07T17:30:37.723Z,7.03
2019-05-07T17:33:06.919Z,6.50
2019-05-07T17:35:35.534Z,4.97
2019-05-07T17:38:07.202Z,4.50
2019-05-07T17:40:34.225Z,4.67
2019-05-07T17:43:03.175Z,4.47
2019-05-07T17:45:32.412Z,5.17
2019-05-07T17:48:03.246Z,5.83
2019-05-07T17:50:34.053Z,5.70
2019-05-07T17:53:02.448Z,5.77
2019-05-07T17:55:32.980Z,6.33
2019-05-07T17:58:02.019Z,5.50
2019-05-07T18:00:32.715Z,3.90
2019-05-07T18:03:18.444Z,5.67
2019-05-07T18:05:47.114Z,7.40
2019-05-07T18:08:15.510Z,8.20
2019-05-07T18:10:43.909Z,4.40
2019-05-07T18:13:12.341Z,3.60
2019-05-07T18:15:42.651Z,6.40
2019-05-07T18:18:14.318Z,6.10
2019-05-07T18:20:42.775Z,4.67
2019-05-07T18:23:16.616Z,5.23
2019-05-07T18:25:42.907Z,4.40
2019-05-07T18:28:12.450Z,4.60
2019-05-07T18:30:40.930Z,4.25
2019-05-07T18:33:13.676Z,4.27
2019-05-07T18:35:42.949Z,5.93
2019-05-07T18:38:11.365Z,4.37
2019-05-07T18:40:42.008Z,6.03
2019-05-07T18:43:12.072Z,5.20
2019-05-07T18:45:40.053Z,4.50
2019-05-07T18:48:08.448Z,5.13
2019-05-07T18:50:36.885Z,7.03
2019-05-07T18:53:05.291Z,6.80
2019-05-07T18:55:33.698Z,4.87
2019-05-07T18:58:02.771Z,3.80
2019-05-07T19:00:38.853Z,4.47
2019-05-07T19:03:07.323Z,4.00
2019-05-07T19:05:35.762Z,4.50
2019-05-07T19:08:08.036Z,5.47
2019-05-07T19:10:34.288Z,4.80
2019-05-07T19:13:02.751Z,5.17
2019-05-07T19:15:32.910Z,3.77
2019-05-07T19:18:02.657Z,7.77
2019-05-07T19:20:32.758Z,4.70
2019-05-07T19:23:02.682Z,4.70
2019-05-07T19:25:32.695Z,5.07
2019-05-07T19:28:02.030Z,3.50
2019-05-07T19:30:32.647Z,4.47
2019-05-07T19:33:01.025Z,5.27
2019-05-07T19:35:29.423Z,3.77
2019-05-07T19:37:57.869Z,5.70
2019-05-07T19:40:26.261Z,3.60
2019-05-07T19:42:54.777Z,4.07
2019-05-07T19:45:24.552Z,6.07
2019-05-07T19:47:53.112Z,5.63
2019-05-07T19:50:23.312Z,4.97
2019-05-07T19:52:52.160Z,5.77
2019-05-07T19:55:21.970Z,4.73
2019-05-07T19:57:52.225Z,4.80
2019-05-07T20:00:22.988Z,7.55
2019-05-07T20:02:53.169Z,6.90
2019-05-07T20:05:21.642Z,4.47
2019-05-07T20:07:53.344Z,4.27
2019-05-07T20:10:33.640Z,6.33
2019-05-07T20:13:03.128Z,5.30
2019-05-07T20:15:32.684Z,5.57
2019-05-07T20:18:03.123Z,7.33
2019-05-07T20:20:33.190Z,9.10
2019-05-07T20:23:02.612Z,8.20
2019-05-07T20:25:33.250Z,6.57
2019-05-07T20:28:02.179Z,7.60
2019-05-07T20:30:32.472Z,6.67
2019-05-07T20:33:02.945Z,10.50
2019-05-07T20:35:32.659Z,5.73
2019-05-07T20:38:02.914Z,7.33
2019-05-07T20:40:32.050Z,6.37
2019-05-07T20:43:01.936Z,5.73
2019-05-07T20:45:32.073Z,6.80
2019-05-07T20:48:02.572Z,7.73
2019-05-07T20:50:33.095Z,10.27
2019-05-07T20:53:02.054Z,12.63
2019-05-07T20:55:48.412Z,11.40
2019-05-07T20:58:16.892Z,12.13
2019-05-07T21:00:46.150Z,11.67
2019-05-07T21:03:23.249Z,11.07
2019-05-07T21:05:52.948Z,9.33
2019-05-07T21:08:22.827Z,10.87
2019-05-07T21:10:53.607Z,7.83
2019-05-07T21:13:28.492Z,8.10
2019-05-07T21:15:52.654Z,7.33
2019-05-07T21:18:23.346Z,6.90
2019-05-07T21:20:52.919Z,7.17
2019-05-07T21:23:23.083Z,7.60
2019-05-07T21:25:52.811Z,8.00
2019-05-07T21:28:21.724Z,4.57
2019-05-07T21:30:52.147Z,5.17
2019-05-07T21:33:22.948Z,5.13
2019-05-07T21:35:52.297Z,5.20
2019-05-07T21:38:22.369Z,6.97
2019-05-07T21:40:51.270Z,5.80
2019-05-07T21:43:21.864Z,6.00
2019-05-07T21:45:49.827Z,5.47
2019-05-07T21:48:18.218Z,8.73
2019-05-07T21:50:46.621Z,6.13
2019-05-07T21:53:28.505Z,7.83
2019-05-07T21:56:04.728Z,6.63
2019-05-07T21:58:39.133Z,7.03
2019-05-07T22:01:12.344Z,8.97
2019-05-07T22:03:43.189Z,7.27
2019-05-07T22:06:12.869Z,6.77
2019-05-07T22:08:41.493Z,9.83
2019-05-07T22:11:12.303Z,9.58
2019-05-07T22:13:43.294Z,7.67
2019-05-07T22:16:13.069Z,7.93
2019-05-07T22:18:42.731Z,7.30
2019-05-07T22:21:12.510Z,6.83
2019-05-07T22:23:42.846Z,7.60
2019-05-07T22:26:20.303Z,8.70
2019-05-07T22:28:42.017Z,8.50
2019-05-07T22:31:12.694Z,7.57
2019-05-07T22:33:52.774Z,8.13
2019-05-07T22:36:22.082Z,7.42
2019-05-07T22:38:52.673Z,8.10
2019-05-07T22:41:22.400Z,9.68
2019-05-07T22:43:50.973Z,7.50
2019-05-07T22:46:21.962Z,8.33
2019-05-07T22:48:49.577Z,7.40
2019-05-07T22:51:18.052Z,9.23
2019-05-07T22:53:47.306Z,10.13
2019-05-07T22:56:15.691Z,7.35
2019-05-07T22:58:48.407Z,10.57
2019-05-07T23:01:18.593Z,11.87
2019-05-07T23:03:47.244Z,8.70
2019-05-07T23:06:15.652Z,9.77
2019-05-07T23:08:44.076Z,10.87
2019-05-07T23:11:12.554Z,7.05
2019-05-07T23:13:42.659Z,7.37
2019-05-07T23:16:12.525Z,7.33
2019-05-07T23:18:42.926Z,8.27
2019-05-07T23:21:11.450Z,11.67
2019-05-07T23:23:41.974Z,8.30
2019-05-07T23:26:12.220Z,8.90
2019-05-07T23:28:41.897Z,7.87
2019-05-07T23:31:12.095Z,8.67
2019-05-07T23:33:40.738Z,9.07
2019-05-07T23:36:09.207Z,8.40
2019-05-07T23:38:37.621Z,7.93
2019-05-07T23:41:07.697Z,12.33
2019-05-07T23:43:36.089Z,7.53
2019-05-07T23:46:04.469Z,7.87
2019-05-07T23:48:32.897Z,8.77
2019-05-07T23:51:02.129Z,7.30
2019-05-07T23:53:30.771Z,10.27
2019-05-07T23:55:59.555Z,7.90
2019-05-07T23:58:27.950Z,9.00
